Pagrindinis puslapis
METAR-TAF:

METAR-TAF

Oro uostai :

Marsa Alam, Egiptas

platuma: 25-33-25N, ilguma: 34-35-01E, Aukštis: 77 m

Dabartinis oras

Ataskaita buvo paskelbta 3 valandos ir 30 minutes, ne 03:00 UTC
Vėjas 12 kt iš Šiaurės Vakarų
Temperatūra 20°C
Drėgmė 56%
Slėgis 1014 hPa
Matomumas 10 km arba daugiau
nėra debesų žemiau 1500 m ir nėra kamuolinių lietaus debesų

METAR: HEMA 020300Z 31012KT CAVOK 20/11 Q1014 NOSIG

Laikas: 08:30 (06:30 UTC)

Prognozė

Ataskaita buvo paskelbta 1 valandą ir 30 minutes, ne 05:00 UTC
Prognozė galioja nuo 02 metu 06 UTC su 03 metu 12 UTC
Vėjas 12 kt iš Šiaurės su gūsio iki 25 kt
Matomumas 10 km arba daugiau
nėra debesų žemiau 1500 m ir nėra kamuolinių lietaus debesų

TAF: HEMA 020500Z 0206/0312 35012G25KT CAVOK

Orai ataskaitas ir orų prognozės (METAR, TAF).

turimą stotys yra geltonos ir raudonos taškus žemėlapyje.

Perkelti pele per norėdami pamatyti stoties vardą.

Tada spustelėkite, norėdami matyti oro stebėjimo ir prognozės.

Norėdami pakeisti žemėlapį: spustelėkite ant žalios mygtukų su juodo kryžiaus žemyn,; žalią mygtuką su brūkšneliu, jei norite nutolinti; arba žalių rodyklių gretimoms žemėlapius.


METAR-TAF: